createdAt,value
2022-10-05T00:01:10.779Z,100.00
2022-10-05T00:03:41.138Z,100.00
2022-10-05T00:06:11.979Z,100.00
2022-10-05T00:08:42.677Z,100.00
2022-10-05T00:11:15.228Z,100.00
2022-10-05T00:13:44.780Z,100.00
2022-10-05T00:16:21.924Z,100.00
2022-10-05T00:18:54.615Z,100.00
2022-10-05T00:21:26.333Z,100.00
2022-10-05T00:23:57.951Z,100.00
2022-10-05T00:26:33.161Z,100.00
2022-10-05T00:29:07.401Z,100.00
2022-10-05T00:31:37.223Z,100.00
2022-10-05T00:34:12.433Z,100.00
2022-10-05T00:36:42.474Z,100.00
2022-10-05T00:39:11.622Z,100.00
2022-10-05T00:41:43.886Z,100.00
2022-10-05T00:44:14.914Z,100.00
2022-10-05T00:47:01.710Z,100.00
2022-10-05T00:49:52.826Z,100.00
2022-10-05T00:52:27.009Z,100.00
2022-10-05T00:55:03.806Z,100.00
2022-10-05T00:57:41.224Z,100.00
2022-10-05T01:00:16.441Z,100.00
2022-10-05T01:03:05.970Z,100.00
2022-10-05T01:05:51.430Z,100.00
2022-10-05T01:09:09.221Z,100.00
2022-10-05T01:11:52.652Z,100.00
2022-10-05T01:14:26.365Z,100.00
2022-10-05T01:17:20.344Z,100.00
2022-10-05T01:20:11.289Z,100.00
2022-10-05T01:23:14.871Z,100.00
2022-10-05T01:25:43.425Z,100.00
2022-10-05T01:28:57.669Z,100.00
2022-10-05T01:31:42.826Z,100.00
2022-10-05T01:34:37.202Z,100.00
2022-10-05T01:37:23.354Z,100.00
2022-10-05T01:40:00.929Z,100.00
2022-10-05T01:42:52.390Z,100.00
2022-10-05T01:45:31.107Z,100.00
2022-10-05T01:48:15.032Z,100.00
2022-10-05T01:51:04.344Z,100.00
2022-10-05T01:53:46.295Z,100.00
2022-10-05T01:56:17.712Z,100.00
2022-10-05T01:58:53.906Z,100.00
2022-10-05T02:01:31.530Z,100.00
2022-10-05T02:04:17.682Z,100.00
2022-10-05T02:06:55.369Z,100.00
2022-10-05T02:09:33.301Z,100.00
2022-10-05T02:12:15.598Z,100.00
2022-10-05T02:14:51.110Z,100.00
2022-10-05T02:17:34.283Z,100.00
2022-10-05T02:20:11.422Z,100.00
2022-10-05T02:22:52.528Z,100.00
2022-10-05T02:25:27.239Z,100.00
2022-10-05T02:28:02.843Z,100.00
2022-10-05T02:30:38.672Z,100.00
2022-10-05T02:33:16.838Z,100.00
2022-10-05T02:35:47.334Z,100.00
2022-10-05T02:38:45.273Z,100.00
2022-10-05T02:41:32.237Z,100.00
2022-10-05T02:44:33.815Z,100.00
2022-10-05T02:47:25.183Z,100.00
2022-10-05T02:50:11.538Z,100.00
2022-10-05T02:53:21.158Z,100.00
2022-10-05T02:55:55.181Z,100.00
2022-10-05T02:58:28.623Z,100.00
2022-10-05T03:01:13.590Z,100.00
2022-10-05T03:03:50.495Z,100.00
2022-10-05T03:06:36.072Z,100.00
2022-10-05T03:09:07.153Z,100.00
2022-10-05T03:12:02.565Z,100.00
2022-10-05T03:14:57.051Z,100.00
2022-10-05T03:17:38.228Z,100.00
2022-10-05T03:20:19.569Z,100.00
2022-10-05T03:22:53.217Z,100.00
2022-10-05T03:25:36.861Z,100.00
2022-10-05T03:28:19.212Z,100.00
2022-10-05T03:31:22.316Z,100.00
2022-10-05T03:34:12.049Z,100.00
2022-10-05T03:36:52.490Z,100.00
2022-10-05T03:39:47.999Z,100.00
2022-10-05T03:42:22.642Z,100.00
2022-10-05T03:45:18.915Z,100.00
2022-10-05T03:48:08.358Z,100.00
2022-10-05T03:50:45.705Z,100.00
2022-10-05T03:53:21.893Z,100.00
2022-10-05T03:56:18.337Z,100.00
2022-10-05T03:58:54.412Z,100.00
2022-10-05T04:01:51.953Z,100.00
2022-10-05T04:04:33.614Z,100.00
2022-10-05T04:07:02.249Z,100.00
2022-10-05T04:09:36.374Z,100.00
2022-10-05T04:12:16.276Z,100.00
2022-10-05T04:14:49.211Z,100.00
2022-10-05T04:17:23.448Z,100.00
2022-10-05T04:20:17.563Z,100.00
2022-10-05T04:23:27.082Z,100.00
2022-10-05T04:26:02.401Z,100.00
2022-10-05T04:28:50.374Z,100.00
2022-10-05T04:31:35.991Z,100.00
2022-10-05T04:34:23.333Z,100.00
2022-10-05T04:37:03.022Z,100.00
2022-10-05T04:40:10.205Z,100.00
2022-10-05T04:42:50.687Z,100.00
2022-10-05T04:45:21.547Z,100.00
2022-10-05T04:48:13.211Z,100.00
2022-10-05T04:50:47.804Z,100.00
2022-10-05T04:53:47.881Z,100.00
2022-10-05T04:56:20.809Z,100.00
2022-10-05T04:59:17.592Z,100.00
2022-10-05T05:02:03.254Z,100.00
2022-10-05T05:04:52.316Z,100.00
2022-10-05T05:07:39.553Z,100.00
2022-10-05T05:10:13.614Z,100.00
2022-10-05T05:12:49.942Z,100.00
2022-10-05T05:15:46.915Z,100.00
2022-10-05T05:18:39.033Z,100.00
2022-10-05T05:21:22.050Z,100.00
2022-10-05T05:24:13.772Z,100.00
2022-10-05T05:26:59.182Z,100.00
2022-10-05T05:29:55.895Z,100.00
2022-10-05T05:32:42.593Z,100.00
2022-10-05T05:35:38.224Z,100.00
2022-10-05T05:38:36.695Z,100.00
2022-10-05T05:41:10.700Z,100.00
2022-10-05T05:44:03.262Z,100.00
2022-10-05T05:47:02.302Z,100.00
2022-10-05T05:49:51.065Z,100.00
2022-10-05T05:52:34.323Z,100.00
2022-10-05T05:55:20.595Z,100.00
2022-10-05T05:57:57.294Z,100.00
2022-10-05T06:00:31.201Z,100.00
2022-10-05T06:03:22.002Z,100.00
2022-10-05T06:06:04.639Z,100.00
2022-10-05T06:08:44.369Z,100.00
2022-10-05T06:12:00.463Z,100.00
2022-10-05T06:14:30.272Z,100.00
2022-10-05T06:17:02.951Z,99.94
2022-10-05T06:19:34.487Z,99.77
2022-10-05T06:22:24.487Z,98.48
2022-10-05T06:24:57.978Z,99.09
2022-10-05T06:27:34.046Z,98.15
2022-10-05T06:30:15.096Z,98.27
2022-10-05T06:32:52.202Z,98.37
2022-10-05T06:35:39.638Z,98.15
2022-10-05T06:38:35.620Z,98.15
2022-10-05T06:41:26.905Z,97.96
2022-10-05T06:44:00.391Z,98.36
2022-10-05T06:47:04.078Z,100.00
2022-10-05T06:49:54.604Z,100.00
2022-10-05T06:52:51.461Z,97.07
2022-10-05T06:55:34.337Z,92.60
2022-10-05T06:58:20.617Z,92.86
2022-10-05T07:00:47.796Z,90.79
2022-10-05T07:03:25.477Z,90.26
2022-10-05T07:06:06.262Z,88.18
2022-10-05T07:08:54.511Z,86.23
2022-10-05T07:11:34.849Z,86.60
2022-10-05T07:14:14.461Z,86.35
2022-10-05T07:17:09.391Z,85.94
2022-10-05T07:20:15.765Z,86.19
2022-10-05T07:23:02.766Z,83.92
2022-10-05T07:25:40.777Z,83.55
2022-10-05T07:28:23.309Z,84.15
2022-10-05T07:30:56.352Z,84.14
2022-10-05T07:33:41.876Z,84.38
2022-10-05T07:36:53.795Z,83.74
2022-10-05T07:39:59.075Z,83.62
2022-10-05T07:42:52.125Z,80.85
2022-10-05T07:45:57.385Z,79.88
2022-10-05T07:48:32.640Z,79.69
2022-10-05T07:51:21.191Z,79.45
2022-10-05T07:54:09.842Z,80.25
2022-10-05T07:56:48.088Z,79.73
2022-10-05T07:59:29.745Z,79.11
2022-10-05T08:02:07.149Z,78.40
2022-10-05T08:04:45.828Z,76.62
2022-10-05T08:07:17.851Z,71.32
2022-10-05T08:10:00.030Z,69.37
2022-10-05T08:13:04.722Z,68.73
2022-10-05T08:15:39.122Z,68.56
2022-10-05T08:18:16.904Z,67.87
2022-10-05T08:20:51.735Z,64.12
2022-10-05T08:23:38.264Z,61.59
2022-10-05T08:26:24.296Z,60.58
2022-10-05T08:28:58.617Z,58.72
2022-10-05T08:31:32.191Z,58.84
2022-10-05T08:34:08.938Z,57.43
2022-10-05T08:36:39.704Z,57.97
2022-10-05T08:39:15.634Z,56.61
2022-10-05T08:42:07.095Z,56.00
2022-10-05T08:44:40.184Z,55.17
2022-10-05T08:47:23.101Z,52.82
2022-10-05T08:50:24.893Z,52.56
2022-10-05T08:53:19.680Z,50.74
2022-10-05T08:56:02.445Z,49.65
2022-10-05T08:58:47.545Z,49.54
2022-10-05T09:01:26.930Z,50.88
2022-10-05T09:04:21.413Z,50.80
2022-10-05T09:07:00.785Z,51.92
2022-10-05T09:09:37.997Z,51.40
2022-10-05T09:12:37.424Z,51.79
2022-10-05T09:15:26.234Z,53.24
2022-10-05T09:18:31.089Z,55.38
2022-10-05T09:21:43.568Z,53.93
2022-10-05T09:24:27.679Z,52.57
2022-10-05T09:27:16.361Z,53.12
2022-10-05T09:30:14.478Z,52.08
2022-10-05T09:33:09.993Z,50.78
2022-10-05T09:36:04.995Z,49.53
2022-10-05T09:38:32.106Z,48.22
2022-10-05T09:41:20.835Z,49.22
2022-10-05T09:44:00.037Z,48.90
2022-10-05T09:46:54.927Z,48.01
2022-10-05T09:49:28.330Z,47.40
2022-10-05T09:51:59.451Z,48.22
2022-10-05T09:54:51.612Z,48.72
2022-10-05T09:57:34.185Z,50.23
2022-10-05T10:00:23.842Z,50.00
2022-10-05T10:03:17.932Z,48.67
2022-10-05T10:06:29.874Z,47.55
2022-10-05T10:09:15.380Z,47.12
2022-10-05T10:12:05.019Z,47.39
2022-10-05T10:14:38.793Z,43.58
2022-10-05T10:17:43.603Z,43.66
2022-10-05T10:20:26.077Z,42.07
2022-10-05T10:23:11.145Z,42.18
2022-10-05T10:25:48.021Z,42.37
2022-10-05T10:28:21.694Z,42.53
2022-10-05T10:31:13.400Z,41.18
2022-10-05T10:34:00.036Z,39.69
2022-10-05T10:36:51.431Z,37.56
2022-10-05T10:39:53.899Z,35.70
2022-10-05T10:42:41.294Z,36.74
2022-10-05T10:45:14.205Z,37.88
2022-10-05T10:47:51.543Z,37.66
2022-10-05T10:50:44.400Z,37.52
2022-10-05T10:53:48.749Z,40.26
2022-10-05T10:56:46.514Z,42.19
2022-10-05T10:59:55.721Z,42.01
2022-10-05T11:02:27.313Z,40.86
2022-10-05T11:05:01.197Z,40.76
2022-10-05T11:07:49.428Z,40.38
2022-10-05T11:10:25.678Z,40.06
2022-10-05T11:13:06.970Z,40.55
2022-10-05T11:15:56.955Z,40.00
2022-10-05T11:18:26.708Z,39.38
2022-10-05T11:21:36.406Z,37.42
2022-10-05T11:24:15.041Z,39.10
2022-10-05T11:27:15.609Z,40.74
2022-10-05T11:29:42.713Z,41.16
2022-10-05T11:32:24.661Z,42.30
2022-10-05T11:35:29.250Z,43.00
2022-10-05T11:38:30.341Z,43.58
2022-10-05T11:41:03.310Z,43.68
2022-10-05T11:44:07.323Z,43.44
2022-10-05T11:47:11.924Z,44.21
2022-10-05T11:49:51.142Z,45.78
2022-10-05T11:52:21.571Z,46.56
2022-10-05T11:55:17.149Z,46.62
2022-10-05T11:57:56.008Z,47.14
2022-10-05T12:00:25.104Z,47.27
2022-10-05T12:03:29.478Z,46.79
2022-10-05T12:06:16.644Z,45.77
2022-10-05T12:08:56.221Z,45.94
2022-10-05T12:11:29.112Z,45.73
2022-10-05T12:14:19.870Z,45.68
2022-10-05T12:16:58.901Z,46.81
2022-10-05T12:19:33.618Z,47.49
2022-10-05T12:22:15.559Z,47.22
2022-10-05T12:25:14.007Z,44.11
2022-10-05T12:27:45.834Z,41.49
2022-10-05T12:30:29.457Z,38.39
2022-10-05T12:33:16.546Z,36.33
2022-10-05T12:36:02.823Z,36.27
2022-10-05T12:38:54.291Z,37.17
2022-10-05T12:41:37.019Z,37.29
2022-10-05T12:44:31.544Z,37.76
2022-10-05T12:47:01.482Z,38.02
2022-10-05T12:49:51.903Z,40.08
2022-10-05T12:52:36.382Z,40.84
2022-10-05T12:55:10.268Z,42.24
2022-10-05T12:57:37.798Z,42.96
2022-10-05T13:00:19.069Z,44.08
2022-10-05T13:02:57.671Z,45.03
2022-10-05T13:05:37.114Z,44.87
2022-10-05T13:08:18.825Z,47.16
2022-10-05T13:10:47.882Z,47.92
2022-10-05T13:13:27.373Z,49.56
2022-10-05T13:16:04.362Z,48.74
2022-10-05T13:19:06.172Z,49.14
2022-10-05T13:22:01.483Z,49.96
2022-10-05T13:24:42.633Z,50.00
2022-10-05T13:27:27.426Z,50.54
2022-10-05T13:30:00.973Z,50.79
2022-10-05T13:32:39.404Z,50.94
2022-10-05T13:35:31.474Z,52.52
2022-10-05T13:38:16.554Z,52.57
2022-10-05T13:40:53.420Z,52.98
2022-10-05T13:44:00.925Z,52.23
2022-10-05T13:46:46.136Z,52.11
2022-10-05T13:49:13.344Z,51.17
2022-10-05T13:51:52.217Z,50.01
2022-10-05T13:54:36.413Z,47.09
2022-10-05T13:57:35.006Z,44.65
2022-10-05T14:00:27.034Z,44.29
2022-10-05T14:03:00.251Z,42.61
2022-10-05T14:05:30.445Z,39.72
2022-10-05T14:08:16.336Z,38.88
2022-10-05T14:10:46.842Z,39.30
2022-10-05T14:13:19.760Z,39.68
2022-10-05T14:16:01.468Z,40.30
2022-10-05T14:18:32.762Z,38.88
2022-10-05T14:21:08.228Z,38.93
2022-10-05T14:23:35.992Z,37.63
2022-10-05T14:26:16.821Z,38.18
2022-10-05T14:29:00.294Z,39.65
2022-10-05T14:31:36.512Z,39.83
2022-10-05T14:34:34.494Z,40.59
2022-10-05T14:37:17.824Z,40.43
2022-10-05T14:39:48.388Z,41.30
2022-10-05T14:42:28.818Z,41.84
2022-10-05T14:45:11.566Z,42.43
2022-10-05T14:47:52.524Z,43.32
2022-10-05T14:50:29.329Z,43.59
2022-10-05T14:53:13.854Z,43.69
2022-10-05T14:56:00.483Z,46.46
2022-10-05T14:58:27.664Z,48.09
2022-10-05T15:01:02.481Z,47.90
2022-10-05T15:04:17.219Z,48.90
2022-10-05T15:07:04.230Z,50.31
2022-10-05T15:09:50.182Z,51.65
2022-10-05T15:12:35.749Z,53.70
2022-10-05T15:15:12.494Z,53.87
2022-10-05T15:17:52.089Z,54.71
2022-10-05T15:20:44.974Z,54.83
2022-10-05T15:23:47.174Z,55.09
2022-10-05T15:26:36.236Z,54.93
2022-10-05T15:29:41.722Z,54.68
2022-10-05T15:32:23.958Z,56.41
2022-10-05T15:35:09.641Z,57.81
2022-10-05T15:37:43.291Z,59.63
2022-10-05T15:40:23.133Z,59.24
2022-10-05T15:42:54.973Z,61.33
2022-10-05T15:45:33.501Z,61.70
2022-10-05T15:48:21.866Z,62.90
2022-10-05T15:50:56.445Z,62.73
2022-10-05T15:53:32.959Z,62.17
2022-10-05T15:56:15.264Z,64.55
2022-10-05T15:58:42.541Z,66.40
2022-10-05T16:01:18.291Z,64.81
2022-10-05T16:03:56.729Z,65.35
2022-10-05T16:07:06.531Z,67.37
2022-10-05T16:09:33.934Z,68.34
2022-10-05T16:12:18.159Z,69.58
2022-10-05T16:14:47.854Z,72.15
2022-10-05T16:17:53.654Z,70.80
2022-10-05T16:20:29.808Z,69.86
2022-10-05T16:23:34.129Z,72.83
2022-10-05T16:26:16.170Z,75.37
2022-10-05T16:28:46.493Z,74.49
2022-10-05T16:31:36.906Z,75.59
2022-10-05T16:34:31.190Z,75.25
2022-10-05T16:37:24.658Z,78.49
2022-10-05T16:39:58.114Z,78.08
2022-10-05T16:42:28.011Z,77.84
2022-10-05T16:45:44.395Z,78.60
2022-10-05T16:48:25.511Z,82.33
2022-10-05T16:51:16.091Z,81.90
2022-10-05T16:53:59.317Z,79.60
2022-10-05T16:56:57.332Z,77.67
2022-10-05T16:59:46.097Z,80.75
2022-10-05T17:02:33.462Z,79.67
2022-10-05T17:05:19.732Z,84.51
2022-10-05T17:07:56.286Z,87.29
2022-10-05T17:10:33.418Z,86.69
2022-10-05T17:13:11.219Z,86.94
2022-10-05T17:16:00.371Z,86.98
2022-10-05T17:19:05.157Z,85.31
2022-10-05T17:22:02.718Z,84.79
2022-10-05T17:24:50.105Z,83.37
2022-10-05T17:27:20.714Z,79.63
2022-10-05T17:29:52.028Z,79.18
2022-10-05T17:32:19.036Z,79.38
2022-10-05T17:35:01.039Z,79.56
2022-10-05T17:37:39.321Z,79.43
2022-10-05T17:40:29.451Z,79.03
2022-10-05T17:42:57.751Z,79.13
2022-10-05T17:45:33.757Z,81.30
2022-10-05T17:48:30.670Z,83.85
2022-10-05T17:51:16.184Z,87.51
2022-10-05T17:54:01.746Z,89.48
2022-10-05T17:56:42.128Z,90.01
2022-10-05T17:59:11.749Z,91.09
2022-10-05T18:01:40.326Z,91.83
2022-10-05T18:04:13.333Z,91.65
2022-10-05T18:06:52.329Z,91.25
2022-10-05T18:09:22.560Z,90.93
2022-10-05T18:12:17.350Z,91.44
2022-10-05T18:14:58.874Z,91.94
2022-10-05T18:17:50.914Z,91.90
2022-10-05T18:20:21.969Z,92.46
2022-10-05T18:22:52.565Z,90.17
2022-10-05T18:25:43.729Z,89.61
2022-10-05T18:28:28.351Z,90.96
2022-10-05T18:31:15.868Z,93.07
2022-10-05T18:34:10.549Z,93.52
2022-10-05T18:37:34.698Z,93.80
2022-10-05T18:40:20.851Z,93.25
2022-10-05T18:43:02.657Z,92.08
2022-10-05T18:45:51.090Z,88.65
2022-10-05T18:48:59.511Z,85.79
2022-10-05T18:51:46.366Z,85.99
2022-10-05T18:54:43.079Z,86.78
2022-10-05T18:57:34.744Z,87.03
2022-10-05T19:00:13.768Z,89.70
2022-10-05T19:02:48.261Z,89.19
2022-10-05T19:05:47.424Z,89.56
2022-10-05T19:08:33.742Z,93.60
2022-10-05T19:11:29.990Z,95.19
2022-10-05T19:14:05.266Z,94.82
2022-10-05T19:16:45.812Z,94.13
2022-10-05T19:19:52.914Z,95.93
2022-10-05T19:22:28.670Z,97.33
2022-10-05T19:25:28.172Z,94.97
2022-10-05T19:28:16.851Z,95.37
2022-10-05T19:30:51.385Z,97.31
2022-10-05T19:33:31.010Z,96.16
2022-10-05T19:36:16.015Z,92.49
2022-10-05T19:39:07.867Z,90.17
2022-10-05T19:42:09.027Z,91.91
2022-10-05T19:44:45.150Z,96.82
2022-10-05T19:47:41.264Z,96.29
2022-10-05T19:50:23.837Z,96.42
2022-10-05T19:53:00.916Z,97.14
2022-10-05T19:55:35.580Z,96.64
2022-10-05T19:58:26.181Z,96.85
2022-10-05T20:01:06.406Z,97.77
2022-10-05T20:03:37.532Z,98.45
2022-10-05T20:06:10.119Z,97.98
2022-10-05T20:08:43.371Z,97.84
2022-10-05T20:11:14.465Z,98.15
2022-10-05T20:13:47.648Z,97.82
2022-10-05T20:16:33.459Z,97.38
2022-10-05T20:19:36.018Z,97.48
2022-10-05T20:22:40.030Z,95.60
2022-10-05T20:25:19.468Z,93.20
2022-10-05T20:27:46.715Z,91.49
2022-10-05T20:30:20.136Z,92.19
2022-10-05T20:32:49.104Z,93.87
2022-10-05T20:35:23.190Z,94.56
2022-10-05T20:37:50.465Z,96.79
2022-10-05T20:40:19.357Z,96.72
2022-10-05T20:42:47.642Z,97.58
2022-10-05T20:45:15.199Z,99.33
2022-10-05T20:47:42.755Z,99.23
2022-10-05T20:50:10.959Z,98.49
2022-10-05T20:52:38.570Z,98.37
2022-10-05T20:55:08.524Z,98.80
2022-10-05T20:57:41.185Z,98.36
2022-10-05T21:00:11.033Z,97.61
2022-10-05T21:02:39.275Z,96.66
2022-10-05T21:05:07.101Z,96.47
2022-10-05T21:07:34.904Z,97.25
2022-10-05T21:10:03.385Z,98.64
2022-10-05T21:12:33.838Z,97.64
2022-10-05T21:15:04.458Z,95.13
2022-10-05T21:17:34.356Z,93.54
2022-10-05T21:20:01.771Z,93.45
2022-10-05T21:22:29.173Z,94.71
2022-10-05T21:24:56.346Z,97.70
2022-10-05T21:27:24.468Z,98.92
2022-10-05T21:29:51.841Z,99.91
2022-10-05T21:32:19.103Z,100.00
2022-10-05T21:34:46.461Z,99.88
2022-10-05T21:37:15.033Z,100.00
2022-10-05T21:39:42.487Z,100.00
2022-10-05T21:42:09.638Z,99.74
2022-10-05T21:44:37.343Z,100.00
2022-10-05T21:47:07.054Z,100.00
2022-10-05T21:49:35.902Z,100.00
2022-10-05T21:52:05.405Z,98.04
2022-10-05T21:54:34.807Z,99.53
2022-10-05T21:57:02.877Z,100.00
2022-10-05T21:59:33.854Z,100.00
2022-10-05T22:02:01.887Z,98.99
2022-10-05T22:04:29.862Z,96.26
2022-10-05T22:06:57.506Z,95.32
2022-10-05T22:09:25.187Z,94.38
2022-10-05T22:11:53.541Z,94.48
2022-10-05T22:14:21.149Z,93.22
2022-10-05T22:16:49.351Z,93.01
2022-10-05T22:19:19.556Z,94.97
2022-10-05T22:21:47.172Z,97.74
2022-10-05T22:24:14.883Z,99.13
2022-10-05T22:26:48.721Z,99.97
2022-10-05T22:29:17.471Z,99.97
2022-10-05T22:31:48.786Z,100.00
2022-10-05T22:34:18.010Z,100.00
2022-10-05T22:36:47.588Z,97.62
2022-10-05T22:39:18.113Z,95.77
2022-10-05T22:41:46.481Z,94.81
2022-10-05T22:44:14.878Z,94.42
2022-10-05T22:46:43.708Z,96.96
2022-10-05T22:49:11.314Z,98.25
2022-10-05T22:51:39.911Z,99.72
2022-10-05T22:54:07.897Z,99.59
2022-10-05T22:56:35.836Z,99.97
2022-10-05T22:59:03.954Z,99.78
2022-10-05T23:01:31.658Z,100.00
2022-10-05T23:03:59.209Z,100.00
2022-10-05T23:06:26.863Z,100.00
2022-10-05T23:08:54.743Z,100.00
2022-10-05T23:11:25.589Z,100.00
2022-10-05T23:13:58.394Z,100.00
2022-10-05T23:16:28.550Z,100.00
2022-10-05T23:18:57.304Z,100.00
2022-10-05T23:21:28.820Z,100.00
2022-10-05T23:23:56.929Z,100.00
2022-10-05T23:26:25.896Z,100.00
2022-10-05T23:28:54.825Z,100.00
2022-10-05T23:31:29.427Z,100.00
2022-10-05T23:33:57.823Z,100.00
2022-10-05T23:36:31.129Z,100.00
2022-10-05T23:39:00.218Z,100.00
2022-10-05T23:41:28.269Z,100.00
2022-10-05T23:43:56.343Z,100.00
2022-10-05T23:46:24.538Z,100.00
2022-10-05T23:48:53.392Z,100.00
2022-10-05T23:51:21.160Z,100.00
2022-10-05T23:53:49.129Z,100.00
2022-10-05T23:56:16.912Z,100.00
2022-10-05T23:58:46.088Z,100.00
